createdAt,value
2019-05-25T00:00:12.629Z,99.90
2019-05-25T00:03:01.444Z,99.90
2019-05-25T00:05:30.936Z,99.90
2019-05-25T00:08:00.413Z,99.90
2019-05-25T00:10:29.900Z,99.90
2019-05-25T00:12:59.378Z,99.90
2019-05-25T00:15:28.862Z,99.90
2019-05-25T00:17:58.368Z,99.90
2019-05-25T00:20:27.896Z,99.90
2019-05-25T00:22:57.652Z,99.90
2019-05-25T00:25:27.117Z,99.90
2019-05-25T00:27:56.592Z,99.90
2019-05-25T00:30:26.092Z,99.90
2019-05-25T00:32:55.576Z,99.90
2019-05-25T00:35:25.105Z,99.90
2019-05-25T00:37:54.568Z,99.90
2019-05-25T00:40:24.094Z,99.90
2019-05-25T00:42:53.549Z,99.90
2019-05-25T00:45:23.045Z,99.90
2019-05-25T00:47:52.582Z,99.90
2019-05-25T00:50:22.158Z,99.90
2019-05-25T00:52:51.673Z,99.90
2019-05-25T00:55:21.201Z,99.90
2019-05-25T00:57:50.653Z,99.90
2019-05-25T01:00:21.382Z,99.90
2019-05-25T01:02:50.940Z,99.90
2019-05-25T01:05:39.728Z,99.90
2019-05-25T01:08:09.251Z,99.90
2019-05-25T01:10:38.808Z,99.90
2019-05-25T01:13:08.303Z,99.90
2019-05-25T01:15:37.787Z,99.90
2019-05-25T01:18:07.262Z,99.90
2019-05-25T01:20:36.807Z,99.90
2019-05-25T01:23:07.288Z,99.90
2019-05-25T01:25:36.744Z,99.90
2019-05-25T01:28:06.216Z,99.90
2019-05-25T01:30:36.112Z,99.90
2019-05-25T01:33:05.981Z,99.90
2019-05-25T01:35:35.450Z,99.90
2019-05-25T01:38:05.078Z,99.90
2019-05-25T01:40:34.558Z,99.90
2019-05-25T01:43:04.115Z,99.90
2019-05-25T01:45:33.605Z,99.90
2019-05-25T01:48:03.098Z,99.90
2019-05-25T01:50:32.554Z,99.90
2019-05-25T01:53:02.084Z,99.90
2019-05-25T01:55:31.587Z,99.90
2019-05-25T01:58:01.094Z,99.90
2019-05-25T02:00:30.945Z,99.90
2019-05-25T02:03:00.412Z,99.90
2019-05-25T02:05:29.915Z,99.90
2019-05-25T02:07:59.425Z,99.90
2019-05-25T02:10:36.306Z,99.90
2019-05-25T02:13:06.014Z,99.90
2019-05-25T02:15:35.556Z,99.90
2019-05-25T02:18:24.399Z,99.90
2019-05-25T02:20:53.881Z,99.90
2019-05-25T02:23:24.557Z,99.90
2019-05-25T02:25:54.044Z,99.90
2019-05-25T02:28:23.527Z,99.90
2019-05-25T02:30:53.089Z,99.90
2019-05-25T02:33:22.668Z,99.90
2019-05-25T02:35:52.177Z,99.90
2019-05-25T02:38:21.726Z,99.90
2019-05-25T02:40:51.306Z,99.90
2019-05-25T02:43:20.794Z,99.90
2019-05-25T02:45:50.325Z,99.90
2019-05-25T02:48:19.849Z,99.90
2019-05-25T02:50:52.954Z,99.90
2019-05-25T02:53:21.033Z,99.90
2019-05-25T02:55:50.580Z,99.90
2019-05-25T02:58:20.232Z,99.90
2019-05-25T03:00:49.794Z,99.90
2019-05-25T03:03:19.539Z,99.90
2019-05-25T03:05:51.242Z,99.90
2019-05-25T03:08:20.719Z,99.90
2019-05-25T03:10:50.864Z,99.90
2019-05-25T03:13:21.134Z,99.90
2019-05-25T03:15:50.623Z,99.90
2019-05-25T03:18:20.109Z,99.90
2019-05-25T03:20:49.783Z,99.90
2019-05-25T03:23:19.287Z,99.90
2019-05-25T03:25:50.278Z,99.90
2019-05-25T03:28:20.040Z,99.90
2019-05-25T03:30:49.530Z,99.90
2019-05-25T03:33:19.038Z,99.90
2019-05-25T03:35:48.989Z,99.90
2019-05-25T03:38:18.508Z,99.90
2019-05-25T03:40:48.006Z,99.90
2019-05-25T03:43:17.622Z,99.90
2019-05-25T03:45:47.125Z,99.90
2019-05-25T03:48:35.946Z,99.90
2019-05-25T03:51:05.452Z,99.90
2019-05-25T03:53:34.953Z,99.90
2019-05-25T03:56:06.264Z,99.90
2019-05-25T03:58:35.657Z,99.90
2019-05-25T04:01:05.153Z,99.90
2019-05-25T04:03:34.677Z,99.90
2019-05-25T04:06:04.509Z,99.90
2019-05-25T04:08:33.990Z,99.90
2019-05-25T04:11:03.585Z,99.90
2019-05-25T04:13:52.353Z,99.90
2019-05-25T04:16:22.046Z,99.90
2019-05-25T04:18:51.637Z,99.90
2019-05-25T04:21:21.119Z,99.90
2019-05-25T04:23:50.656Z,99.90
2019-05-25T04:26:22.735Z,99.90
2019-05-25T04:28:54.444Z,99.90
2019-05-25T04:31:24.306Z,99.90
2019-05-25T04:33:53.765Z,99.90
2019-05-25T04:36:23.338Z,99.90
2019-05-25T04:38:52.930Z,99.90
2019-05-25T04:41:22.462Z,99.90
2019-05-25T04:43:51.916Z,99.90
2019-05-25T04:46:21.690Z,99.90
2019-05-25T04:48:51.455Z,99.90
2019-05-25T04:51:20.895Z,99.90
2019-05-25T04:53:50.391Z,99.90
2019-05-25T04:56:19.894Z,99.90
2019-05-25T04:58:49.382Z,99.90
2019-05-25T05:01:22.312Z,99.90
2019-05-25T05:03:50.104Z,99.90
2019-05-25T05:06:19.607Z,99.90
2019-05-25T05:08:49.111Z,99.90
2019-05-25T05:11:18.616Z,99.90
2019-05-25T05:13:48.098Z,99.90
2019-05-25T05:16:17.609Z,99.90
2019-05-25T05:18:47.071Z,99.90
2019-05-25T05:21:16.567Z,99.90
2019-05-25T05:23:46.076Z,99.90
2019-05-25T05:26:15.567Z,99.90
2019-05-25T05:28:48.638Z,99.90
2019-05-25T05:31:23.619Z,99.90
2019-05-25T05:33:48.263Z,99.90
2019-05-25T05:36:19.838Z,99.90
2019-05-25T05:38:50.299Z,99.90
2019-05-25T05:41:21.908Z,99.90
2019-05-25T05:43:54.874Z,99.90
2019-05-25T05:46:27.728Z,99.90
2019-05-25T05:48:58.537Z,99.90
2019-05-25T05:51:31.867Z,99.90
2019-05-25T05:54:04.015Z,99.90
2019-05-25T05:56:33.683Z,99.90
2019-05-25T05:59:03.291Z,99.90
2019-05-25T06:01:32.823Z,99.90
2019-05-25T06:04:02.409Z,99.90
2019-05-25T06:06:32.010Z,99.90
2019-05-25T06:09:01.501Z,99.90
2019-05-25T06:11:30.970Z,99.90
2019-05-25T06:14:00.483Z,99.90
2019-05-25T06:16:29.957Z,99.90
2019-05-25T06:19:05.953Z,99.90
2019-05-25T06:21:35.425Z,99.90
2019-05-25T06:24:05.269Z,99.90
2019-05-25T06:26:34.794Z,99.90
2019-05-25T06:29:05.021Z,99.90
2019-05-25T06:31:34.496Z,99.90
2019-05-25T06:34:04.353Z,99.90
2019-05-25T06:36:33.917Z,99.90
2019-05-25T06:39:03.959Z,99.90
2019-05-25T06:41:33.443Z,99.90
2019-05-25T06:44:02.907Z,99.90
2019-05-25T06:46:32.377Z,99.90
2019-05-25T06:49:02.055Z,99.90
2019-05-25T06:51:31.517Z,99.90
2019-05-25T06:54:00.984Z,99.90
2019-05-25T06:56:31.969Z,99.90
2019-05-25T06:59:10.421Z,99.90
2019-05-25T07:01:39.943Z,99.90
2019-05-25T07:04:09.450Z,99.90
2019-05-25T07:06:38.958Z,99.90
2019-05-25T07:09:11.554Z,99.90
2019-05-25T07:12:00.502Z,99.90
2019-05-25T07:14:30.018Z,99.90
2019-05-25T07:16:59.544Z,99.90
2019-05-25T07:19:29.038Z,99.90
2019-05-25T07:21:58.580Z,99.90
2019-05-25T07:24:28.028Z,99.90
2019-05-25T07:26:57.569Z,99.90
2019-05-25T07:29:46.558Z,99.50
2019-05-25T07:32:17.542Z,95.50
2019-05-25T07:34:47.013Z,88.90
2019-05-25T07:37:35.910Z,73.90
2019-05-25T07:40:09.088Z,67.70
2019-05-25T07:42:38.764Z,66.70
2019-05-25T07:45:09.096Z,60.90
2019-05-25T07:47:38.583Z,67.30
2019-05-25T07:50:09.685Z,66.50
2019-05-25T07:52:39.196Z,67.70
2019-05-25T07:55:28.038Z,66.50
2019-05-25T07:57:57.564Z,68.80
2019-05-25T08:00:27.428Z,73.70
2019-05-25T08:02:56.895Z,79.80
2019-05-25T08:05:26.604Z,87.00
2019-05-25T08:07:56.088Z,83.70
2019-05-25T08:10:25.572Z,85.10
2019-05-25T08:12:55.083Z,81.50
2019-05-25T08:15:24.561Z,75.70
2019-05-25T08:17:54.095Z,73.90
2019-05-25T08:20:23.627Z,72.20
2019-05-25T08:22:53.116Z,75.70
2019-05-25T08:25:41.905Z,72.30
2019-05-25T08:28:11.418Z,75.60
2019-05-25T08:30:41.106Z,81.10
2019-05-25T08:33:10.597Z,75.70
2019-05-25T08:35:40.061Z,71.00
2019-05-25T08:38:09.549Z,60.40
2019-05-25T08:40:39.086Z,55.00
2019-05-25T08:43:08.594Z,49.60
2019-05-25T08:45:38.065Z,49.30
2019-05-25T08:48:07.666Z,52.10
2019-05-25T08:50:38.810Z,51.10
2019-05-25T08:53:08.730Z,50.20
2019-05-25T08:55:44.686Z,50.10
2019-05-25T08:58:14.183Z,50.30
2019-05-25T09:00:46.599Z,52.20
2019-05-25T09:03:25.173Z,51.70
2019-05-25T09:05:54.634Z,53.10
2019-05-25T09:08:24.109Z,51.20
2019-05-25T09:10:53.647Z,49.20
2019-05-25T09:13:23.150Z,48.70
2019-05-25T09:15:52.640Z,48.20
2019-05-25T09:18:22.145Z,49.40
2019-05-25T09:20:51.615Z,48.10
2019-05-25T09:23:21.084Z,49.30
2019-05-25T09:25:50.579Z,46.20
2019-05-25T09:28:20.062Z,44.70
2019-05-25T09:30:49.628Z,43.20
2019-05-25T09:33:19.185Z,42.20
2019-05-25T09:35:48.831Z,40.00
2019-05-25T09:38:18.315Z,39.90
2019-05-25T09:40:47.796Z,41.90
2019-05-25T09:43:17.302Z,39.80
2019-05-25T09:45:46.807Z,39.60
2019-05-25T09:48:16.388Z,40.80
2019-05-25T09:50:46.242Z,37.10
2019-05-25T09:53:15.709Z,36.60
2019-05-25T09:55:45.378Z,33.60
2019-05-25T09:58:27.965Z,31.70
2019-05-25T10:00:57.470Z,32.70
2019-05-25T10:03:26.961Z,33.20
2019-05-25T10:05:56.429Z,31.30
2019-05-25T10:08:27.472Z,33.30
2019-05-25T10:11:00.028Z,34.90
2019-05-25T10:13:29.511Z,35.50
2019-05-25T10:16:18.320Z,38.80
2019-05-25T10:18:47.813Z,37.00
2019-05-25T10:21:17.328Z,36.70
2019-05-25T10:23:46.858Z,35.50
2019-05-25T10:26:16.365Z,35.10
2019-05-25T10:28:45.845Z,35.00
2019-05-25T10:31:15.534Z,32.60
2019-05-25T10:33:44.988Z,31.50
2019-05-25T10:36:14.464Z,31.50
2019-05-25T10:38:43.993Z,33.80
2019-05-25T10:41:13.461Z,36.50
2019-05-25T10:43:42.930Z,36.80
2019-05-25T10:46:12.445Z,38.00
2019-05-25T10:48:41.929Z,37.20
2019-05-25T10:51:11.409Z,34.10
2019-05-25T10:54:00.370Z,33.70
2019-05-25T10:56:49.163Z,33.30
2019-05-25T10:59:18.667Z,31.80
2019-05-25T11:01:48.154Z,33.50
2019-05-25T11:04:17.647Z,34.80
2019-05-25T11:06:47.130Z,34.50
2019-05-25T11:09:16.598Z,34.30
2019-05-25T11:11:46.071Z,36.40
2019-05-25T11:14:21.606Z,37.60
2019-05-25T11:16:52.655Z,35.50
2019-05-25T11:19:31.114Z,37.40
2019-05-25T11:22:00.587Z,35.50
2019-05-25T11:24:30.055Z,33.30
2019-05-25T11:26:59.853Z,33.30
2019-05-25T11:29:48.708Z,30.60
2019-05-25T11:32:18.281Z,29.60
2019-05-25T11:34:47.780Z,29.60
2019-05-25T11:37:17.274Z,28.00
2019-05-25T11:39:46.745Z,29.10
2019-05-25T11:42:16.242Z,30.50
2019-05-25T11:45:07.175Z,31.20
2019-05-25T11:47:36.680Z,31.20
2019-05-25T11:50:08.518Z,30.00
2019-05-25T11:52:38.649Z,29.60
2019-05-25T11:55:09.858Z,29.40
2019-05-25T11:57:39.797Z,29.90
2019-05-25T12:00:24.219Z,29.20
2019-05-25T12:02:44.565Z,28.80
2019-05-25T12:05:15.860Z,28.80
2019-05-25T12:07:45.410Z,28.10
2019-05-25T12:10:17.274Z,30.80
2019-05-25T12:12:49.462Z,30.30
2019-05-25T12:15:22.079Z,31.40
2019-05-25T12:17:53.060Z,31.40
2019-05-25T12:20:22.997Z,34.60
2019-05-25T12:22:52.686Z,34.20
2019-05-25T12:25:23.692Z,34.30
2019-05-25T12:27:53.251Z,33.10
2019-05-25T12:30:23.351Z,30.90
2019-05-25T12:32:52.860Z,31.00
2019-05-25T12:35:22.586Z,30.70
2019-05-25T12:37:58.041Z,29.90
2019-05-25T12:40:28.756Z,29.60
2019-05-25T12:43:00.961Z,30.90
2019-05-25T12:45:33.425Z,30.00
2019-05-25T12:48:02.915Z,30.50
2019-05-25T12:50:51.729Z,29.20
2019-05-25T12:53:21.198Z,29.90
2019-05-25T12:55:52.277Z,32.00
2019-05-25T12:58:27.495Z,31.60
2019-05-25T13:01:16.297Z,30.00
2019-05-25T13:03:45.818Z,27.80
2019-05-25T13:06:18.200Z,28.00
2019-05-25T13:08:46.552Z,27.50
2019-05-25T13:11:16.075Z,27.40
2019-05-25T13:13:51.305Z,28.60
2019-05-25T13:16:26.891Z,27.70
2019-05-25T13:18:56.379Z,29.30
2019-05-25T13:21:25.961Z,28.50
2019-05-25T13:23:55.427Z,28.40
2019-05-25T13:26:44.220Z,28.60
2019-05-25T13:29:15.236Z,27.60
2019-05-25T13:31:44.701Z,27.20
2019-05-25T13:34:14.165Z,27.70
2019-05-25T13:36:43.688Z,27.20
2019-05-25T13:39:13.172Z,26.40
2019-05-25T13:41:42.658Z,27.00
2019-05-25T13:44:12.154Z,27.60
2019-05-25T13:46:41.648Z,27.00
2019-05-25T13:49:11.145Z,27.00
2019-05-25T13:51:40.822Z,27.90
2019-05-25T13:54:10.291Z,28.30
2019-05-25T13:56:42.478Z,28.00
2019-05-25T13:59:12.021Z,29.50
2019-05-25T14:01:41.519Z,29.20
2019-05-25T14:04:11.010Z,29.60
2019-05-25T14:06:46.569Z,31.40
2019-05-25T14:09:16.161Z,31.30
2019-05-25T14:11:51.344Z,31.40
2019-05-25T14:14:24.191Z,31.30
2019-05-25T14:16:52.113Z,33.50
2019-05-25T14:19:21.570Z,34.30
2019-05-25T14:21:51.425Z,34.00
2019-05-25T14:24:21.192Z,32.70
2019-05-25T14:27:10.098Z,31.70
2019-05-25T14:29:41.099Z,30.70
2019-05-25T14:32:10.565Z,33.30
2019-05-25T14:34:40.602Z,31.40
2019-05-25T14:37:10.071Z,31.50
2019-05-25T14:39:39.577Z,31.00
2019-05-25T14:42:09.324Z,32.00
2019-05-25T14:44:38.811Z,34.60
2019-05-25T14:47:08.283Z,34.90
2019-05-25T14:49:38.045Z,34.40
2019-05-25T14:52:07.614Z,35.90
2019-05-25T14:54:37.114Z,35.90
2019-05-25T14:57:06.705Z,36.80
2019-05-25T14:59:36.199Z,36.60
2019-05-25T15:02:05.860Z,35.00
2019-05-25T15:04:35.371Z,35.10
2019-05-25T15:07:05.373Z,35.00
2019-05-25T15:09:54.328Z,33.80
2019-05-25T15:12:23.793Z,35.00
2019-05-25T15:15:13.951Z,34.00
2019-05-25T15:18:02.772Z,36.70
2019-05-25T15:20:51.613Z,36.90
2019-05-25T15:23:21.157Z,37.10
2019-05-25T15:25:50.629Z,37.90
2019-05-25T15:28:20.117Z,38.20
2019-05-25T15:30:49.579Z,38.50
2019-05-25T15:33:19.490Z,39.10
2019-05-25T15:35:49.037Z,39.30
2019-05-25T15:38:18.532Z,39.00
2019-05-25T15:40:48.019Z,40.20
2019-05-25T15:43:17.608Z,39.70
2019-05-25T15:45:47.088Z,40.90
2019-05-25T15:48:16.651Z,40.60
2019-05-25T15:50:46.200Z,39.90
2019-05-25T15:53:15.726Z,41.10
2019-05-25T15:55:45.215Z,40.70
2019-05-25T15:58:14.726Z,40.30
2019-05-25T16:00:48.596Z,40.50
2019-05-25T16:03:22.081Z,40.50
2019-05-25T16:05:54.350Z,41.60
2019-05-25T16:08:24.134Z,42.80
2019-05-25T16:10:53.712Z,42.50
2019-05-25T16:13:23.042Z,43.40
2019-05-25T16:15:52.541Z,44.20
2019-05-25T16:18:22.126Z,43.90
2019-05-25T16:20:51.583Z,44.20
2019-05-25T16:23:21.103Z,44.60
2019-05-25T16:25:50.666Z,44.40
2019-05-25T16:28:25.881Z,44.40
2019-05-25T16:30:55.352Z,44.90
2019-05-25T16:33:24.867Z,44.50
2019-05-25T16:36:13.674Z,43.30
2019-05-25T16:38:43.171Z,43.70
2019-05-25T16:41:12.646Z,44.30
2019-05-25T16:43:42.124Z,44.90
2019-05-25T16:46:11.822Z,44.70
2019-05-25T16:49:00.628Z,44.90
2019-05-25T16:51:30.164Z,44.40
2019-05-25T16:53:59.637Z,44.00
2019-05-25T16:56:29.120Z,44.80
2019-05-25T16:58:58.623Z,43.40
2019-05-25T17:01:28.091Z,45.50
2019-05-25T17:03:57.598Z,46.70
2019-05-25T17:06:27.107Z,45.60
2019-05-25T17:08:56.594Z,46.20
2019-05-25T17:11:26.106Z,46.90
2019-05-25T17:13:55.647Z,47.10
2019-05-25T17:16:25.135Z,46.70
2019-05-25T17:18:54.631Z,47.20
2019-05-25T17:21:24.268Z,46.80
2019-05-25T17:23:53.733Z,46.60
2019-05-25T17:26:23.245Z,47.30
2019-05-25T17:28:52.760Z,46.90
2019-05-25T17:31:22.518Z,47.60
2019-05-25T17:33:53.114Z,47.10
2019-05-25T17:36:23.212Z,46.70
2019-05-25T17:38:52.741Z,47.00
2019-05-25T17:41:22.247Z,47.10
2019-05-25T17:43:51.919Z,48.00
2019-05-25T17:46:21.419Z,47.70
2019-05-25T17:48:50.898Z,47.90
2019-05-25T17:51:39.686Z,48.40
2019-05-25T17:54:09.225Z,49.20
2019-05-25T17:56:38.698Z,49.60
2019-05-25T17:59:08.276Z,51.30
2019-05-25T18:01:37.776Z,52.00
2019-05-25T18:04:08.026Z,53.10
2019-05-25T18:06:37.756Z,53.50
2019-05-25T18:09:08.747Z,54.20
2019-05-25T18:11:38.378Z,54.20
2019-05-25T18:14:27.199Z,55.10
2019-05-25T18:16:56.694Z,55.60
2019-05-25T18:19:26.332Z,56.60
2019-05-25T18:21:58.948Z,56.40
2019-05-25T18:24:46.351Z,56.40
2019-05-25T18:27:15.857Z,56.70
2019-05-25T18:29:45.332Z,57.30
2019-05-25T18:32:14.872Z,57.60
2019-05-25T18:34:44.357Z,57.80
2019-05-25T18:37:13.996Z,57.80
2019-05-25T18:40:03.362Z,59.10
2019-05-25T18:42:41.803Z,60.40
2019-05-25T18:45:12.012Z,63.20
2019-05-25T18:47:50.411Z,66.10
2019-05-25T18:50:20.831Z,68.20
2019-05-25T18:52:50.699Z,70.50
2019-05-25T18:55:21.086Z,72.00
2019-05-25T18:57:53.587Z,73.30
2019-05-25T19:00:25.248Z,75.30
2019-05-25T19:02:54.688Z,78.20
2019-05-25T19:05:25.777Z,82.60
2019-05-25T19:07:55.334Z,83.30
2019-05-25T19:10:25.143Z,85.00
2019-05-25T19:12:54.853Z,86.70
2019-05-25T19:15:24.565Z,88.90
2019-05-25T19:17:54.066Z,90.00
2019-05-25T19:20:23.870Z,91.30
2019-05-25T19:22:53.367Z,92.40
2019-05-25T19:25:23.299Z,92.40
2019-05-25T19:27:52.873Z,92.70
2019-05-25T19:30:24.431Z,94.20
2019-05-25T19:33:13.259Z,95.90
2019-05-25T19:35:42.724Z,96.50
2019-05-25T19:38:12.215Z,99.10
2019-05-25T19:40:41.881Z,99.90
2019-05-25T19:43:11.344Z,99.90
2019-05-25T19:45:41.199Z,99.90
2019-05-25T19:48:11.003Z,99.90
2019-05-25T19:50:59.785Z,99.90
2019-05-25T19:53:29.283Z,99.90
2019-05-25T19:55:58.750Z,99.90
2019-05-25T19:58:28.226Z,99.90
2019-05-25T20:00:57.742Z,99.90
2019-05-25T20:03:27.232Z,99.90
2019-05-25T20:05:56.718Z,99.90
2019-05-25T20:08:26.249Z,99.90
2019-05-25T20:10:56.007Z,99.90
2019-05-25T20:13:25.495Z,99.90
2019-05-25T20:15:55.071Z,99.90
2019-05-25T20:18:24.563Z,99.90
2019-05-25T20:20:54.060Z,99.90
2019-05-25T20:23:23.574Z,99.90
2019-05-25T20:25:53.031Z,99.90
2019-05-25T20:28:22.540Z,99.90
2019-05-25T20:30:52.028Z,99.90
2019-05-25T20:33:27.795Z,99.90
2019-05-25T20:35:52.717Z,99.90
2019-05-25T20:38:22.231Z,99.90
2019-05-25T20:40:52.098Z,99.90
2019-05-25T20:43:21.569Z,99.90
2019-05-25T20:45:51.045Z,99.90
2019-05-25T20:48:20.538Z,99.90
2019-05-25T20:50:49.993Z,99.90
2019-05-25T20:53:38.852Z,99.90
2019-05-25T20:56:27.626Z,99.90
2019-05-25T20:58:57.114Z,99.90
2019-05-25T21:01:26.754Z,99.90
2019-05-25T21:03:56.227Z,99.90
2019-05-25T21:06:25.755Z,99.90
2019-05-25T21:08:55.225Z,99.90
2019-05-25T21:11:24.694Z,99.90
2019-05-25T21:13:54.208Z,99.90
2019-05-25T21:16:24.590Z,99.90
2019-05-25T21:18:54.079Z,99.90
2019-05-25T21:21:23.825Z,99.90
2019-05-25T21:23:53.293Z,99.90
2019-05-25T21:26:22.775Z,99.90
2019-05-25T21:28:52.254Z,99.90
2019-05-25T21:31:23.886Z,99.90
2019-05-25T21:33:53.051Z,99.90
2019-05-25T21:36:22.555Z,99.90
2019-05-25T21:38:52.021Z,99.90
2019-05-25T21:41:21.483Z,99.90
2019-05-25T21:43:51.213Z,99.90
2019-05-25T21:46:20.968Z,99.90
2019-05-25T21:48:50.425Z,99.90
2019-05-25T21:51:19.945Z,99.90
2019-05-25T21:53:49.437Z,99.90
2019-05-25T21:56:18.905Z,99.90
2019-05-25T21:58:48.397Z,99.90
2019-05-25T22:01:18.245Z,99.90
2019-05-25T22:03:47.716Z,99.90
2019-05-25T22:06:24.284Z,99.90
2019-05-25T22:08:48.459Z,99.90
2019-05-25T22:11:18.092Z,99.90
2019-05-25T22:13:47.592Z,99.90
2019-05-25T22:16:17.058Z,99.90
2019-05-25T22:18:46.705Z,99.90
2019-05-25T22:21:16.231Z,99.90
2019-05-25T22:23:45.685Z,99.90
2019-05-25T22:26:15.190Z,99.90
2019-05-25T22:28:45.477Z,99.90
2019-05-25T22:31:15.056Z,99.90
2019-05-25T22:33:44.542Z,99.90
2019-05-25T22:36:14.109Z,99.90
2019-05-25T22:38:43.615Z,99.90
2019-05-25T22:41:13.070Z,99.90
2019-05-25T22:43:42.575Z,99.90
2019-05-25T22:46:12.157Z,99.90
2019-05-25T22:48:41.789Z,99.90
2019-05-25T22:51:11.293Z,99.90
2019-05-25T22:53:40.832Z,99.90
2019-05-25T22:56:10.308Z,99.90
2019-05-25T22:58:39.874Z,99.90
2019-05-25T23:01:09.541Z,99.90
2019-05-25T23:03:39.045Z,99.90
2019-05-25T23:06:08.552Z,99.90
2019-05-25T23:08:38.023Z,99.90
2019-05-25T23:11:07.567Z,99.90
2019-05-25T23:13:37.077Z,99.90
2019-05-25T23:16:06.584Z,99.90
2019-05-25T23:18:36.071Z,99.90
2019-05-25T23:21:05.645Z,99.90
2019-05-25T23:23:35.147Z,99.90
2019-05-25T23:26:04.569Z,99.90
2019-05-25T23:28:34.064Z,99.90
2019-05-25T23:31:03.543Z,99.90
2019-05-25T23:33:33.011Z,99.90
2019-05-25T23:36:02.730Z,99.90
2019-05-25T23:38:32.230Z,99.90
2019-05-25T23:41:01.730Z,99.90
2019-05-25T23:43:31.252Z,99.90
2019-05-25T23:46:03.306Z,99.90
2019-05-25T23:48:32.865Z,99.90
2019-05-25T23:51:02.354Z,99.90
2019-05-25T23:53:31.816Z,99.90
2019-05-25T23:56:04.039Z,99.90
2019-05-25T23:58:33.587Z,99.90
